PWSweather.com
Personal Weather Stations
Station Observations
WISCHPK61
Green Bay Schmitt Park, Green Bay, WI 54311

Green Bay Schmitt ParkGreen Bay, WI 54311

Lat: 44.514277, Lon: -87.935067

Elevation: 735

Station Type: Acu Rite Pro Weather Center model 02032C

http://greenbayweathercam.com

High Low Average
Temperature 49.8°F9.9°C 37.2°F2.9°C 42.3°F5.7°C
Dew Point 49.5°F9.7°C 36.4°F2.4°C 41.5°F5.3°C
Winds Calm Calm Calm Calm Calm SCalm S
Wind Gusts 2.3 mph3.7 kmh -- --
Humidity 99% 87% 97%
Pressure 29.34 in993.6 mb 28.77 in974.3 mb -
Precipitation 0.86 in21.8 mm - -
Hour Temp Dew Point Humidity Winds Wind Gusts Pressure Precip Precip Rate Daily Precip Total
12:00 AM 37.6°F3.1°C 37.3°F2.9°C 99% Calm Calm -- 29.33 in993.2 mb - 0.00 in0.0 mm 0.00 in0.0 mm
01:00 AM 37.2°F2.9°C 36.9°F2.7°C 99% Calm Calm -- 29.34 in993.6 mb - 0.00 in0.0 mm 0.00 in0.0 mm
02:00 AM 37.2°F2.9°C 36.4°F2.4°C 97% Calm Calm -- 29.34 in993.6 mb - 0.00 in0.0 mm 0.00 in0.0 mm
03:00 AM 38.1°F3.4°C 37.8°F3.2°C 99% Calm Calm -- 29.33 in993.2 mb - 0.00 in0.0 mm 0.00 in0.0 mm
04:00 AM 38.5°F3.6°C 38.0°F3.3°C 98% Calm Calm -- 29.31 in992.6 mb - 0.00 in0.0 mm 0.00 in0.0 mm
05:00 AM 38.1°F3.4°C 37.8°F3.2°C 99% Calm Calm -- 29.31 in992.6 mb - 0.00 in0.0 mm 0.00 in0.0 mm
06:00 AM 37.4°F3.0°C 36.6°F2.6°C 97% Calm Calm -- 29.31 in992.6 mb - 0.00 in0.0 mm 0.00 in0.0 mm
07:00 AM 38.7°F3.7°C 36.6°F2.6°C 92% Calm Calm -- 29.31 in992.6 mb - 0.00 in0.0 mm 0.00 in0.0 mm
08:00 AM 40.5°F4.7°C 40.2°F4.6°C 99% Calm Calm -- 29.31 in992.6 mb - 0.00 in0.0 mm 0.00 in0.0 mm
09:00 AM 44.8°F7.1°C 43.2°F6.2°C 94% Calm Calm -- 29.29 in991.9 mb - 0.00 in0.0 mm 0.00 in0.0 mm
10:00 AM 49.8°F9.9°C 49.5°F9.7°C 99% Calm Calm -- 29.26 in990.9 mb - 0.00 in0.0 mm 0.00 in0.0 mm
11:00 AM 49.0°F9.4°C 45.3°F7.4°C 87% Calm Calm -- 29.23 in989.8 mb - 0.00 in0.0 mm 0.00 in0.0 mm
12:00 PM 44.8°F7.1°C 42.3°F5.7°C 91% Calm Calm -- 29.21 in989.2 mb - 0.00 in0.0 mm 0.00 in0.0 mm
01:00 PM 43.3°F6.3°C 43.0°F6.1°C 99% Calm Calm -- 29.19 in988.5 mb - 0.00 in0.0 mm 0.00 in0.0 mm
02:00 PM 42.1°F5.6°C 41.8°F5.4°C 99% Calm Calm -- 29.15 in987.1 mb - 0.13 in3.3 mm 0.13 in3.3 mm
03:00 PM 42.1°F5.6°C 41.8°F5.4°C 99% Calm Calm -- 29.09 in985.1 mb - 0.11 in2.8 mm 0.24 in6.1 mm
04:00 PM 41.9°F5.5°C 41.6°F5.3°C 99% Calm Calm -- 29.06 in984.1 mb - 0.22 in5.6 mm 0.46 in11.7 mm
05:00 PM 43.0°F6.1°C 42.5°F5.8°C 98% Calm Calm -- 28.99 in981.7 mb - 0.01 in0.3 mm 0.47 in11.9 mm
06:00 PM 43.7°F6.5°C 43.2°F6.2°C 98% Calm Calm -- 28.91 in979.0 mb - 0.04 in1.0 mm 0.51 in13.0 mm
07:00 PM 44.6°F7.0°C 44.3°F6.8°C 99% Calm Calm -- 28.89 in978.3 mb - 0.07 in1.8 mm 0.58 in14.7 mm
08:00 PM 45.7°F7.6°C 45.4°F7.4°C 99% Calm Calm -- 28.84 in976.6 mb - 0.02 in0.5 mm 0.60 in15.2 mm
09:00 PM 45.7°F7.6°C 45.4°F7.4°C 99% Calm Calm 2.3 mph3.7 kmh 28.82 in976.0 mb - 0.10 in2.5 mm 0.70 in17.8 mm
10:00 PM 43.7°F6.5°C 43.4°F6.3°C 99% Calm Calm -- 28.81 in975.6 mb - 0.13 in3.3 mm 0.83 in21.1 mm
11:00 PM 42.6°F5.9°C 42.3°F5.7°C 99% Calm Calm -- 28.78 in974.6 mb - 0.03 in0.8 mm 0.86 in21.8 mm